sensor_id;sensor_type;location;lat;lon;timestamp;P1;durP1;ratioP1;P2;durP2;ratioP2
21166;SDS011;10741;52.272;9.580;2022-10-31T00:01:35;11.90;;;7.50;;
21166;SDS011;10741;52.272;9.580;2022-10-31T00:04:02;12.80;;;7.30;;
21166;SDS011;10741;52.272;9.580;2022-10-31T00:06:28;17.70;;;8.30;;
21166;SDS011;10741;52.272;9.580;2022-10-31T00:08:55;10.87;;;7.50;;
21166;SDS011;10741;52.272;9.580;2022-10-31T00:11:23;15.53;;;8.97;;
21166;SDS011;10741;52.272;9.580;2022-10-31T00:13:49;14.27;;;7.67;;
21166;SDS011;10741;52.272;9.580;2022-10-31T00:16:16;13.47;;;7.87;;
21166;SDS011;10741;52.272;9.580;2022-10-31T00:18:53;13.80;;;8.17;;
21166;SDS011;10741;52.272;9.580;2022-10-31T00:21:24;10.07;;;6.67;;
21166;SDS011;10741;52.272;9.580;2022-10-31T00:23:50;10.87;;;7.20;;
21166;SDS011;10741;52.272;9.580;2022-10-31T00:26:17;11.97;;;7.80;;
21166;SDS011;10741;52.272;9.580;2022-10-31T00:28:43;11.20;;;7.90;;
21166;SDS011;10741;52.272;9.580;2022-10-31T00:31:09;13.97;;;6.73;;
21166;SDS011;10741;52.272;9.580;2022-10-31T00:33:37;9.90;;;7.17;;
21166;SDS011;10741;52.272;9.580;2022-10-31T00:36:04;21.83;;;8.87;;
21166;SDS011;10741;52.272;9.580;2022-10-31T00:38:31;12.73;;;8.40;;
21166;SDS011;10741;52.272;9.580;2022-10-31T00:40:57;17.73;;;8.97;;
21166;SDS011;10741;52.272;9.580;2022-10-31T00:43:22;18.90;;;9.67;;
21166;SDS011;10741;52.272;9.580;2022-10-31T00:45:48;18.93;;;10.60;;
21166;SDS011;10741;52.272;9.580;2022-10-31T00:48:14;25.60;;;11.77;;
21166;SDS011;10741;52.272;9.580;2022-10-31T00:50:40;18.00;;;11.63;;
21166;SDS011;10741;52.272;9.580;2022-10-31T00:53:06;19.43;;;12.37;;
21166;SDS011;10741;52.272;9.580;2022-10-31T00:55:32;21.47;;;12.33;;
21166;SDS011;10741;52.272;9.580;2022-10-31T00:57:58;23.17;;;12.90;;
21166;SDS011;10741;52.272;9.580;2022-10-31T01:00:23;19.57;;;13.03;;
21166;SDS011;10741;52.272;9.580;2022-10-31T01:02:49;25.67;;;14.10;;
21166;SDS011;10741;52.272;9.580;2022-10-31T01:05:15;24.27;;;14.97;;
21166;SDS011;10741;52.272;9.580;2022-10-31T01:07:41;28.93;;;16.07;;
21166;SDS011;10741;52.272;9.580;2022-10-31T01:10:08;37.33;;;18.67;;
21166;SDS011;10741;52.272;9.580;2022-10-31T01:12:41;31.53;;;19.07;;
21166;SDS011;10741;52.272;9.580;2022-10-31T01:15:08;30.77;;;19.47;;
21166;SDS011;10741;52.272;9.580;2022-10-31T01:17:35;32.43;;;18.90;;
21166;SDS011;10741;52.272;9.580;2022-10-31T01:20:01;31.90;;;19.10;;
21166;SDS011;10741;52.272;9.580;2022-10-31T01:22:28;30.10;;;19.43;;
21166;SDS011;10741;52.272;9.580;2022-10-31T01:24:54;31.83;;;19.87;;
21166;SDS011;10741;52.272;9.580;2022-10-31T01:27:20;36.03;;;20.37;;
21166;SDS011;10741;52.272;9.580;2022-10-31T01:29:45;34.87;;;19.97;;
21166;SDS011;10741;52.272;9.580;2022-10-31T01:32:11;29.23;;;18.60;;
21166;SDS011;10741;52.272;9.580;2022-10-31T01:34:37;33.90;;;19.53;;
21166;SDS011;10741;52.272;9.580;2022-10-31T01:37:02;34.07;;;19.83;;
21166;SDS011;10741;52.272;9.580;2022-10-31T01:39:28;33.57;;;20.10;;
21166;SDS011;10741;52.272;9.580;2022-10-31T01:41:54;35.53;;;20.27;;
21166;SDS011;10741;52.272;9.580;2022-10-31T01:46:54;39.10;;;19.83;;
21166;SDS011;10741;52.272;9.580;2022-10-31T01:49:26;34.10;;;19.33;;
21166;SDS011;10741;52.272;9.580;2022-10-31T01:51:58;36.80;;;19.73;;
21166;SDS011;10741;52.272;9.580;2022-10-31T01:54:34;32.83;;;20.37;;
21166;SDS011;10741;52.272;9.580;2022-10-31T01:57:04;36.07;;;18.80;;
21166;SDS011;10741;52.272;9.580;2022-10-31T01:59:34;34.43;;;18.93;;
21166;SDS011;10741;52.272;9.580;2022-10-31T02:02:05;36.03;;;19.43;;
21166;SDS011;10741;52.272;9.580;2022-10-31T02:04:31;33.03;;;18.63;;
21166;SDS011;10741;52.272;9.580;2022-10-31T02:09:29;33.63;;;18.40;;
21166;SDS011;10741;52.272;9.580;2022-10-31T02:11:57;34.43;;;19.03;;
21166;SDS011;10741;52.272;9.580;2022-10-31T02:14:25;31.40;;;19.03;;
21166;SDS011;10741;52.272;9.580;2022-10-31T02:16:53;36.03;;;19.13;;
21166;SDS011;10741;52.272;9.580;2022-10-31T02:19:22;33.33;;;18.70;;
21166;SDS011;10741;52.272;9.580;2022-10-31T02:30:41;36.50;;;19.23;;
21166;SDS011;10741;52.272;9.580;2022-10-31T02:35:40;43.10;;;19.60;;
21166;SDS011;10741;52.272;9.580;2022-10-31T02:41:09;34.70;;;19.67;;
21166;SDS011;10741;52.272;9.580;2022-10-31T02:46:42;36.27;;;19.33;;
21166;SDS011;10741;52.272;9.580;2022-10-31T02:49:11;36.70;;;20.10;;
21166;SDS011;10741;52.272;9.580;2022-10-31T02:51:48;35.57;;;19.97;;
21166;SDS011;10741;52.272;9.580;2022-10-31T02:54:17;33.60;;;18.67;;
21166;SDS011;10741;52.272;9.580;2022-10-31T02:56:48;37.97;;;20.10;;
21166;SDS011;10741;52.272;9.580;2022-10-31T02:59:16;37.40;;;20.10;;
21166;SDS011;10741;52.272;9.580;2022-10-31T03:04:40;30.67;;;19.30;;
21166;SDS011;10741;52.272;9.580;2022-10-31T03:15:27;34.30;;;18.97;;
21166;SDS011;10741;52.272;9.580;2022-10-31T03:17:59;30.73;;;17.43;;
21166;SDS011;10741;52.272;9.580;2022-10-31T03:20:43;30.73;;;16.67;;
21166;SDS011;10741;52.272;9.580;2022-10-31T03:23:15;28.83;;;16.47;;
21166;SDS011;10741;52.272;9.580;2022-10-31T03:25:42;29.93;;;17.73;;
21166;SDS011;10741;52.272;9.580;2022-10-31T03:28:10;28.80;;;16.97;;
21166;SDS011;10741;52.272;9.580;2022-10-31T03:30:38;30.83;;;16.83;;
21166;SDS011;10741;52.272;9.580;2022-10-31T03:33:09;27.20;;;16.33;;
21166;SDS011;10741;52.272;9.580;2022-10-31T03:35:40;32.17;;;17.83;;
21166;SDS011;10741;52.272;9.580;2022-10-31T03:38:10;33.07;;;18.30;;
21166;SDS011;10741;52.272;9.580;2022-10-31T03:40:37;30.87;;;16.60;;
21166;SDS011;10741;52.272;9.580;2022-10-31T03:43:08;30.83;;;17.70;;
21166;SDS011;10741;52.272;9.580;2022-10-31T03:45:40;32.70;;;16.67;;
21166;SDS011;10741;52.272;9.580;2022-10-31T03:48:09;27.90;;;16.17;;
21166;SDS011;10741;52.272;9.580;2022-10-31T03:50:39;27.67;;;16.70;;
21166;SDS011;10741;52.272;9.580;2022-10-31T03:53:22;24.27;;;15.13;;
21166;SDS011;10741;52.272;9.580;2022-10-31T03:56:12;30.13;;;15.60;;
21166;SDS011;10741;52.272;9.580;2022-10-31T03:58:53;22.07;;;14.60;;
21166;SDS011;10741;52.272;9.580;2022-10-31T04:01:26;24.50;;;14.63;;
21166;SDS011;10741;52.272;9.580;2022-10-31T04:03:54;27.37;;;13.90;;
21166;SDS011;10741;52.272;9.580;2022-10-31T04:06:21;27.27;;;15.20;;
21166;SDS011;10741;52.272;9.580;2022-10-31T04:08:51;25.23;;;14.40;;
21166;SDS011;10741;52.272;9.580;2022-10-31T04:11:24;28.93;;;14.90;;
21166;SDS011;10741;52.272;9.580;2022-10-31T04:13:54;24.17;;;13.33;;
21166;SDS011;10741;52.272;9.580;2022-10-31T04:16:20;23.53;;;12.50;;
21166;SDS011;10741;52.272;9.580;2022-10-31T04:18:48;21.67;;;12.73;;
21166;SDS011;10741;52.272;9.580;2022-10-31T04:21:14;24.50;;;14.70;;
21166;SDS011;10741;52.272;9.580;2022-10-31T04:23:39;25.40;;;14.43;;
21166;SDS011;10741;52.272;9.580;2022-10-31T04:26:05;23.03;;;13.57;;
21166;SDS011;10741;52.272;9.580;2022-10-31T04:28:31;21.77;;;12.80;;
21166;SDS011;10741;52.272;9.580;2022-10-31T04:30:58;22.00;;;12.60;;
21166;SDS011;10741;52.272;9.580;2022-10-31T04:33:24;20.93;;;12.20;;
21166;SDS011;10741;52.272;9.580;2022-10-31T04:35:50;22.37;;;13.37;;
21166;SDS011;10741;52.272;9.580;2022-10-31T04:38:16;20.27;;;11.80;;
21166;SDS011;10741;52.272;9.580;2022-10-31T04:40:41;19.27;;;11.20;;
21166;SDS011;10741;52.272;9.580;2022-10-31T04:43:07;23.17;;;12.20;;
21166;SDS011;10741;52.272;9.580;2022-10-31T04:45:33;21.50;;;12.67;;
21166;SDS011;10741;52.272;9.580;2022-10-31T04:47:59;16.33;;;11.57;;
21166;SDS011;10741;52.272;9.580;2022-10-31T04:50:24;20.70;;;11.30;;
21166;SDS011;10741;52.272;9.580;2022-10-31T04:52:50;21.50;;;12.20;;
21166;SDS011;10741;52.272;9.580;2022-10-31T04:55:16;20.67;;;12.33;;
21166;SDS011;10741;52.272;9.580;2022-10-31T04:57:48;18.73;;;11.07;;
21166;SDS011;10741;52.272;9.580;2022-10-31T05:00:16;21.03;;;11.13;;
21166;SDS011;10741;52.272;9.580;2022-10-31T05:02:47;18.00;;;9.83;;
21166;SDS011;10741;52.272;9.580;2022-10-31T05:05:14;17.40;;;9.90;;
21166;SDS011;10741;52.272;9.580;2022-10-31T05:07:42;18.97;;;9.47;;
21166;SDS011;10741;52.272;9.580;2022-10-31T05:10:09;16.87;;;9.37;;
21166;SDS011;10741;52.272;9.580;2022-10-31T05:12:36;16.13;;;9.10;;
21166;SDS011;10741;52.272;9.580;2022-10-31T05:15:03;15.97;;;9.20;;
21166;SDS011;10741;52.272;9.580;2022-10-31T05:17:30;14.90;;;8.67;;
21166;SDS011;10741;52.272;9.580;2022-10-31T05:19:56;11.97;;;8.23;;
21166;SDS011;10741;52.272;9.580;2022-10-31T05:22:22;13.10;;;9.57;;
21166;SDS011;10741;52.272;9.580;2022-10-31T05:24:47;15.80;;;8.90;;
21166;SDS011;10741;52.272;9.580;2022-10-31T05:27:13;18.37;;;9.93;;
21166;SDS011;10741;52.272;9.580;2022-10-31T05:29:39;16.80;;;9.13;;
21166;SDS011;10741;52.272;9.580;2022-10-31T05:32:05;17.20;;;9.33;;
21166;SDS011;10741;52.272;9.580;2022-10-31T05:34:30;14.63;;;7.63;;
21166;SDS011;10741;52.272;9.580;2022-10-31T05:36:56;10.97;;;7.23;;
21166;SDS011;10741;52.272;9.580;2022-10-31T05:39:22;16.63;;;7.47;;
21166;SDS011;10741;52.272;9.580;2022-10-31T05:41:47;13.77;;;7.53;;
21166;SDS011;10741;52.272;9.580;2022-10-31T05:44:13;12.83;;;8.07;;
21166;SDS011;10741;52.272;9.580;2022-10-31T05:46:39;12.97;;;7.10;;
21166;SDS011;10741;52.272;9.580;2022-10-31T05:49:04;16.57;;;7.93;;
21166;SDS011;10741;52.272;9.580;2022-10-31T05:51:30;13.63;;;7.37;;
21166;SDS011;10741;52.272;9.580;2022-10-31T05:53:56;14.67;;;7.83;;
21166;SDS011;10741;52.272;9.580;2022-10-31T05:56:21;14.70;;;7.30;;
21166;SDS011;10741;52.272;9.580;2022-10-31T05:58:47;13.27;;;7.13;;
21166;SDS011;10741;52.272;9.580;2022-10-31T06:01:13;10.90;;;6.97;;
21166;SDS011;10741;52.272;9.580;2022-10-31T06:03:39;9.50;;;6.70;;
21166;SDS011;10741;52.272;9.580;2022-10-31T06:06:04;14.60;;;6.50;;
21166;SDS011;10741;52.272;9.580;2022-10-31T06:08:30;12.10;;;7.33;;
21166;SDS011;10741;52.272;9.580;2022-10-31T06:10:56;15.40;;;7.70;;
21166;SDS011;10741;52.272;9.580;2022-10-31T06:13:22;16.73;;;7.40;;
21166;SDS011;10741;52.272;9.580;2022-10-31T06:15:47;15.40;;;8.07;;
21166;SDS011;10741;52.272;9.580;2022-10-31T06:18:13;13.77;;;7.10;;
21166;SDS011;10741;52.272;9.580;2022-10-31T06:20:39;12.57;;;6.97;;
21166;SDS011;10741;52.272;9.580;2022-10-31T06:23:05;12.90;;;6.57;;
21166;SDS011;10741;52.272;9.580;2022-10-31T06:25:31;12.30;;;6.20;;
21166;SDS011;10741;52.272;9.580;2022-10-31T06:27:58;11.60;;;6.30;;
21166;SDS011;10741;52.272;9.580;2022-10-31T06:30:24;9.13;;;5.23;;
21166;SDS011;10741;52.272;9.580;2022-10-31T06:32:49;10.07;;;5.90;;
21166;SDS011;10741;52.272;9.580;2022-10-31T06:35:15;12.17;;;5.90;;
21166;SDS011;10741;52.272;9.580;2022-10-31T06:37:42;11.67;;;5.87;;
21166;SDS011;10741;52.272;9.580;2022-10-31T06:40:07;11.33;;;5.80;;
21166;SDS011;10741;52.272;9.580;2022-10-31T06:42:34;10.60;;;5.80;;
21166;SDS011;10741;52.272;9.580;2022-10-31T06:44:59;8.33;;;5.20;;
21166;SDS011;10741;52.272;9.580;2022-10-31T06:47:25;7.70;;;5.90;;
21166;SDS011;10741;52.272;9.580;2022-10-31T06:49:51;9.83;;;6.03;;
21166;SDS011;10741;52.272;9.580;2022-10-31T06:52:17;11.07;;;5.13;;
21166;SDS011;10741;52.272;9.580;2022-10-31T06:54:42;9.97;;;5.47;;
21166;SDS011;10741;52.272;9.580;2022-10-31T06:57:08;16.10;;;5.97;;
21166;SDS011;10741;52.272;9.580;2022-10-31T06:59:34;9.50;;;5.60;;
21166;SDS011;10741;52.272;9.580;2022-10-31T07:01:59;11.90;;;5.20;;
21166;SDS011;10741;52.272;9.580;2022-10-31T07:04:25;8.87;;;5.33;;
21166;SDS011;10741;52.272;9.580;2022-10-31T07:06:51;8.47;;;5.07;;
21166;SDS011;10741;52.272;9.580;2022-10-31T07:09:17;7.80;;;5.40;;
21166;SDS011;10741;52.272;9.580;2022-10-31T07:11:43;9.10;;;5.33;;
21166;SDS011;10741;52.272;9.580;2022-10-31T07:14:09;8.83;;;5.50;;
21166;SDS011;10741;52.272;9.580;2022-10-31T07:16:35;9.90;;;6.07;;
21166;SDS011;10741;52.272;9.580;2022-10-31T07:19:01;8.10;;;5.87;;
21166;SDS011;10741;52.272;9.580;2022-10-31T07:21:26;10.33;;;6.17;;
21166;SDS011;10741;52.272;9.580;2022-10-31T07:23:52;10.80;;;5.53;;
21166;SDS011;10741;52.272;9.580;2022-10-31T07:26:18;11.17;;;5.97;;
21166;SDS011;10741;52.272;9.580;2022-10-31T07:28:45;10.50;;;5.97;;
21166;SDS011;10741;52.272;9.580;2022-10-31T07:31:11;11.70;;;5.33;;
21166;SDS011;10741;52.272;9.580;2022-10-31T07:33:40;8.40;;;5.00;;
21166;SDS011;10741;52.272;9.580;2022-10-31T07:36:06;11.73;;;6.07;;
21166;SDS011;10741;52.272;9.580;2022-10-31T07:38:32;12.23;;;5.37;;
21166;SDS011;10741;52.272;9.580;2022-10-31T07:40:58;10.40;;;5.60;;
21166;SDS011;10741;52.272;9.580;2022-10-31T07:43:23;12.30;;;5.37;;
21166;SDS011;10741;52.272;9.580;2022-10-31T07:45:54;8.63;;;4.77;;
21166;SDS011;10741;52.272;9.580;2022-10-31T07:48:19;7.57;;;5.13;;
21166;SDS011;10741;52.272;9.580;2022-10-31T07:50:45;10.80;;;5.00;;
21166;SDS011;10741;52.272;9.580;2022-10-31T07:53:12;8.97;;;5.10;;
21166;SDS011;10741;52.272;9.580;2022-10-31T07:55:38;6.70;;;4.10;;
21166;SDS011;10741;52.272;9.580;2022-10-31T07:58:05;6.10;;;2.97;;
21166;SDS011;10741;52.272;9.580;2022-10-31T08:00:36;5.10;;;2.83;;
21166;SDS011;10741;52.272;9.580;2022-10-31T08:03:10;5.37;;;2.60;;
21166;SDS011;10741;52.272;9.580;2022-10-31T08:05:37;4.57;;;1.73;;
21166;SDS011;10741;52.272;9.580;2022-10-31T08:08:05;4.90;;;1.60;;
21166;SDS011;10741;52.272;9.580;2022-10-31T08:10:31;3.67;;;1.50;;
21166;SDS011;10741;52.272;9.580;2022-10-31T08:12:57;2.83;;;1.63;;
21166;SDS011;10741;52.272;9.580;2022-10-31T08:15:25;4.90;;;1.60;;
21166;SDS011;10741;52.272;9.580;2022-10-31T08:17:51;2.17;;;1.23;;
21166;SDS011;10741;52.272;9.580;2022-10-31T08:20:17;3.73;;;1.90;;
21166;SDS011;10741;52.272;9.580;2022-10-31T08:22:51;5.73;;;3.17;;
21166;SDS011;10741;52.272;9.580;2022-10-31T08:25:18;6.67;;;3.23;;
21166;SDS011;10741;52.272;9.580;2022-10-31T08:27:48;6.57;;;3.30;;
21166;SDS011;10741;52.272;9.580;2022-10-31T08:30:18;8.63;;;4.10;;
21166;SDS011;10741;52.272;9.580;2022-10-31T08:32:45;7.60;;;4.17;;
21166;SDS011;10741;52.272;9.580;2022-10-31T08:35:11;10.63;;;5.03;;
21166;SDS011;10741;52.272;9.580;2022-10-31T08:37:37;8.70;;;5.93;;
21166;SDS011;10741;52.272;9.580;2022-10-31T08:40:03;10.43;;;6.03;;
21166;SDS011;10741;52.272;9.580;2022-10-31T08:42:34;12.43;;;6.90;;
21166;SDS011;10741;52.272;9.580;2022-10-31T08:45:00;10.07;;;6.40;;
21166;SDS011;10741;52.272;9.580;2022-10-31T08:47:26;13.60;;;8.07;;
21166;SDS011;10741;52.272;9.580;2022-10-31T08:49:52;11.63;;;7.73;;
21166;SDS011;10741;52.272;9.580;2022-10-31T08:52:18;15.67;;;9.80;;
21166;SDS011;10741;52.272;9.580;2022-10-31T08:55:28;17.40;;;10.50;;
21166;SDS011;10741;52.272;9.580;2022-10-31T08:57:54;15.43;;;9.70;;
21166;SDS011;10741;52.272;9.580;2022-10-31T09:00:24;14.70;;;10.67;;
21166;SDS011;10741;52.272;9.580;2022-10-31T09:02:56;13.13;;;9.93;;
21166;SDS011;10741;52.272;9.580;2022-10-31T09:05:25;17.93;;;12.00;;
21166;SDS011;10741;52.272;9.580;2022-10-31T09:07:54;21.10;;;12.67;;
21166;SDS011;10741;52.272;9.580;2022-10-31T09:10:22;16.87;;;11.63;;
21166;SDS011;10741;52.272;9.580;2022-10-31T09:12:54;22.57;;;12.90;;
21166;SDS011;10741;52.272;9.580;2022-10-31T09:15:20;17.93;;;11.43;;
21166;SDS011;10741;52.272;9.580;2022-10-31T09:17:47;20.67;;;13.27;;
21166;SDS011;10741;52.272;9.580;2022-10-31T09:20:13;18.23;;;14.30;;
21166;SDS011;10741;52.272;9.580;2022-10-31T09:22:39;24.53;;;14.70;;
21166;SDS011;10741;52.272;9.580;2022-10-31T09:25:04;19.07;;;13.87;;
21166;SDS011;10741;52.272;9.580;2022-10-31T09:27:30;17.27;;;12.33;;
21166;SDS011;10741;52.272;9.580;2022-10-31T09:29:56;19.00;;;12.33;;
21166;SDS011;10741;52.272;9.580;2022-10-31T09:32:22;17.07;;;11.83;;
21166;SDS011;10741;52.272;9.580;2022-10-31T09:34:47;21.57;;;13.37;;
21166;SDS011;10741;52.272;9.580;2022-10-31T09:37:13;18.57;;;13.07;;
21166;SDS011;10741;52.272;9.580;2022-10-31T09:39:39;17.87;;;12.73;;
21166;SDS011;10741;52.272;9.580;2022-10-31T09:42:12;16.77;;;11.43;;
21166;SDS011;10741;52.272;9.580;2022-10-31T09:45:21;21.73;;;12.97;;
21166;SDS011;10741;52.272;9.580;2022-10-31T09:50:36;25.17;;;16.17;;
21166;SDS011;10741;52.272;9.580;2022-10-31T09:53:21;22.10;;;14.43;;
21166;SDS011;10741;52.272;9.580;2022-10-31T09:56:13;25.83;;;15.10;;
21166;SDS011;10741;52.272;9.580;2022-10-31T09:58:43;18.90;;;12.10;;
21166;SDS011;10741;52.272;9.580;2022-10-31T10:01:22;17.13;;;11.70;;
21166;SDS011;10741;52.272;9.580;2022-10-31T10:06:51;20.60;;;11.50;;
21166;SDS011;10741;52.272;9.580;2022-10-31T10:09:19;23.40;;;13.13;;
21166;SDS011;10741;52.272;9.580;2022-10-31T10:14:45;16.97;;;10.47;;
21166;SDS011;10741;52.272;9.580;2022-10-31T10:25:20;16.87;;;10.27;;
21166;SDS011;10741;52.272;9.580;2022-10-31T10:28:00;24.17;;;11.00;;
21166;SDS011;10741;52.272;9.580;2022-10-31T10:30:35;19.33;;;10.50;;
21166;SDS011;10741;52.272;9.580;2022-10-31T10:33:10;16.87;;;8.70;;
21166;SDS011;10741;52.272;9.580;2022-10-31T10:35:43;16.03;;;9.70;;
21166;SDS011;10741;52.272;9.580;2022-10-31T10:38:23;16.43;;;9.23;;
21166;SDS011;10741;52.272;9.580;2022-10-31T10:41:20;19.80;;;10.13;;
21166;SDS011;10741;52.272;9.580;2022-10-31T10:43:48;18.07;;;9.90;;
21166;SDS011;10741;52.272;9.580;2022-10-31T10:58:00;16.00;;;9.53;;
21166;SDS011;10741;52.272;9.580;2022-10-31T11:00:39;17.10;;;10.17;;
21166;SDS011;10741;52.272;9.580;2022-10-31T11:03:07;19.90;;;10.20;;
21166;SDS011;10741;52.272;9.580;2022-10-31T11:08:27;19.07;;;11.33;;
21166;SDS011;10741;52.272;9.580;2022-10-31T11:13:37;16.27;;;7.63;;
21166;SDS011;10741;52.272;9.580;2022-10-31T11:18:34;14.40;;;7.77;;
21166;SDS011;10741;52.272;9.580;2022-10-31T11:21:04;14.03;;;7.70;;
21166;SDS011;10741;52.272;9.580;2022-10-31T11:23:33;15.83;;;8.20;;
21166;SDS011;10741;52.272;9.580;2022-10-31T11:26:01;16.27;;;9.47;;
21166;SDS011;10741;52.272;9.580;2022-10-31T11:28:29;15.00;;;8.90;;
21166;SDS011;10741;52.272;9.580;2022-10-31T11:30:58;17.10;;;9.63;;
21166;SDS011;10741;52.272;9.580;2022-10-31T11:33:35;13.27;;;7.80;;
21166;SDS011;10741;52.272;9.580;2022-10-31T11:36:18;17.20;;;9.30;;
21166;SDS011;10741;52.272;9.580;2022-10-31T11:38:48;18.00;;;9.17;;
21166;SDS011;10741;52.272;9.580;2022-10-31T11:41:19;16.73;;;8.47;;
21166;SDS011;10741;52.272;9.580;2022-10-31T11:44:09;15.07;;;9.30;;
21166;SDS011;10741;52.272;9.580;2022-10-31T11:46:49;16.53;;;9.20;;
21166;SDS011;10741;52.272;9.580;2022-10-31T11:49:18;15.10;;;9.10;;
21166;SDS011;10741;52.272;9.580;2022-10-31T11:51:51;14.93;;;8.53;;
21166;SDS011;10741;52.272;9.580;2022-10-31T11:54:22;16.57;;;9.10;;
21166;SDS011;10741;52.272;9.580;2022-10-31T11:57:01;17.37;;;8.90;;
21166;SDS011;10741;52.272;9.580;2022-10-31T11:59:29;14.60;;;8.87;;
21166;SDS011;10741;52.272;9.580;2022-10-31T12:01:57;16.20;;;9.37;;
21166;SDS011;10741;52.272;9.580;2022-10-31T12:04:33;18.53;;;9.20;;
21166;SDS011;10741;52.272;9.580;2022-10-31T12:07:06;12.50;;;8.37;;
21166;SDS011;10741;52.272;9.580;2022-10-31T12:09:33;15.70;;;9.60;;
21166;SDS011;10741;52.272;9.580;2022-10-31T12:17:15;18.70;;;9.90;;
21166;SDS011;10741;52.272;9.580;2022-10-31T12:39:25;18.97;;;11.43;;
21166;SDS011;10741;52.272;9.580;2022-10-31T12:42:00;18.47;;;11.00;;
21166;SDS011;10741;52.272;9.580;2022-10-31T12:44:52;19.23;;;11.43;;
21166;SDS011;10741;52.272;9.580;2022-10-31T12:47:52;17.03;;;10.30;;
21166;SDS011;10741;52.272;9.580;2022-10-31T12:58:31;17.33;;;12.17;;
21166;SDS011;10741;52.272;9.580;2022-10-31T13:01:11;16.10;;;10.97;;
21166;SDS011;10741;52.272;9.580;2022-10-31T13:03:46;13.07;;;9.70;;
21166;SDS011;10741;52.272;9.580;2022-10-31T13:06:29;15.80;;;10.37;;
21166;SDS011;10741;52.272;9.580;2022-10-31T13:09:04;14.37;;;9.63;;
21166;SDS011;10741;52.272;9.580;2022-10-31T13:11:35;14.13;;;9.00;;
21166;SDS011;10741;52.272;9.580;2022-10-31T13:16:42;14.20;;;8.93;;
21166;SDS011;10741;52.272;9.580;2022-10-31T13:32:18;15.90;;;9.40;;
21166;SDS011;10741;52.272;9.580;2022-10-31T13:34:49;16.47;;;9.80;;
21166;SDS011;10741;52.272;9.580;2022-10-31T13:37:24;19.33;;;9.60;;
21166;SDS011;10741;52.272;9.580;2022-10-31T13:40:05;16.43;;;9.67;;
21166;SDS011;10741;52.272;9.580;2022-10-31T13:45:32;18.43;;;8.83;;
21166;SDS011;10741;52.272;9.580;2022-10-31T13:48:17;16.03;;;8.93;;
21166;SDS011;10741;52.272;9.580;2022-10-31T13:50:56;15.33;;;9.17;;
21166;SDS011;10741;52.272;9.580;2022-10-31T13:53:44;18.77;;;9.57;;
21166;SDS011;10741;52.272;9.580;2022-10-31T13:56:22;16.07;;;9.87;;
21166;SDS011;10741;52.272;9.580;2022-10-31T14:01:53;15.73;;;9.33;;
21166;SDS011;10741;52.272;9.580;2022-10-31T14:04:22;18.57;;;11.27;;
21166;SDS011;10741;52.272;9.580;2022-10-31T14:07:04;15.67;;;11.53;;
21166;SDS011;10741;52.272;9.580;2022-10-31T14:09:33;18.00;;;10.73;;
21166;SDS011;10741;52.272;9.580;2022-10-31T14:12:03;16.33;;;10.53;;
21166;SDS011;10741;52.272;9.580;2022-10-31T14:14:49;18.63;;;10.90;;
21166;SDS011;10741;52.272;9.580;2022-10-31T14:17:21;18.63;;;11.20;;
21166;SDS011;10741;52.272;9.580;2022-10-31T14:20:21;17.60;;;10.07;;
21166;SDS011;10741;52.272;9.580;2022-10-31T14:23:28;21.43;;;10.57;;
21166;SDS011;10741;52.272;9.580;2022-10-31T14:31:41;17.97;;;10.33;;
21166;SDS011;10741;52.272;9.580;2022-10-31T14:34:20;21.50;;;12.40;;
21166;SDS011;10741;52.272;9.580;2022-10-31T14:48:29;21.40;;;13.17;;
21166;SDS011;10741;52.272;9.580;2022-10-31T14:51:01;21.20;;;12.77;;
21166;SDS011;10741;52.272;9.580;2022-10-31T14:53:51;25.07;;;13.93;;
21166;SDS011;10741;52.272;9.580;2022-10-31T14:56:23;22.10;;;13.17;;
21166;SDS011;10741;52.272;9.580;2022-10-31T14:58:50;23.17;;;13.77;;
21166;SDS011;10741;52.272;9.580;2022-10-31T15:01:19;24.77;;;14.13;;
21166;SDS011;10741;52.272;9.580;2022-10-31T15:03:49;22.53;;;13.07;;
21166;SDS011;10741;52.272;9.580;2022-10-31T15:06:16;20.23;;;12.30;;
21166;SDS011;10741;52.272;9.580;2022-10-31T15:08:46;23.63;;;12.73;;
21166;SDS011;10741;52.272;9.580;2022-10-31T15:13:47;24.03;;;11.97;;
21166;SDS011;10741;52.272;9.580;2022-10-31T15:16:20;19.90;;;11.40;;
21166;SDS011;10741;52.272;9.580;2022-10-31T15:18:59;26.07;;;11.77;;
21166;SDS011;10741;52.272;9.580;2022-10-31T15:21:30;25.33;;;12.30;;
21166;SDS011;10741;52.272;9.580;2022-10-31T15:23:57;19.33;;;11.77;;
21166;SDS011;10741;52.272;9.580;2022-10-31T15:26:29;20.17;;;11.07;;
21166;SDS011;10741;52.272;9.580;2022-10-31T15:29:10;19.87;;;11.33;;
21166;SDS011;10741;52.272;9.580;2022-10-31T15:31:37;22.37;;;13.93;;
21166;SDS011;10741;52.272;9.580;2022-10-31T15:34:22;22.03;;;13.10;;
21166;SDS011;10741;52.272;9.580;2022-10-31T15:37:04;24.13;;;13.50;;
21166;SDS011;10741;52.272;9.580;2022-10-31T15:39:35;28.00;;;15.50;;
21166;SDS011;10741;52.272;9.580;2022-10-31T15:42:00;23.57;;;15.33;;
21166;SDS011;10741;52.272;9.580;2022-10-31T15:47:01;31.13;;;17.37;;
21166;SDS011;10741;52.272;9.580;2022-10-31T15:49:31;27.30;;;17.30;;
21166;SDS011;10741;52.272;9.580;2022-10-31T15:52:05;33.87;;;19.40;;
21166;SDS011;10741;52.272;9.580;2022-10-31T15:54:53;33.77;;;19.17;;
21166;SDS011;10741;52.272;9.580;2022-10-31T15:57:24;35.30;;;21.40;;
21166;SDS011;10741;52.272;9.580;2022-10-31T15:59:53;38.87;;;23.83;;
21166;SDS011;10741;52.272;9.580;2022-10-31T16:02:23;37.27;;;22.97;;
21166;SDS011;10741;52.272;9.580;2022-10-31T16:04:55;39.27;;;23.33;;
21166;SDS011;10741;52.272;9.580;2022-10-31T16:07:22;42.03;;;23.80;;
21166;SDS011;10741;52.272;9.580;2022-10-31T16:09:59;38.07;;;22.60;;
21166;SDS011;10741;52.272;9.580;2022-10-31T16:12:33;39.57;;;22.93;;
21166;SDS011;10741;52.272;9.580;2022-10-31T16:15:13;39.73;;;23.50;;
21166;SDS011;10741;52.272;9.580;2022-10-31T16:17:41;39.57;;;23.00;;
21166;SDS011;10741;52.272;9.580;2022-10-31T16:20:20;36.93;;;22.23;;
21166;SDS011;10741;52.272;9.580;2022-10-31T16:22:50;38.47;;;22.93;;
21166;SDS011;10741;52.272;9.580;2022-10-31T16:25:29;37.90;;;21.93;;
21166;SDS011;10741;52.272;9.580;2022-10-31T16:28:04;34.07;;;21.57;;
21166;SDS011;10741;52.272;9.580;2022-10-31T16:30:39;36.43;;;21.80;;
21166;SDS011;10741;52.272;9.580;2022-10-31T16:35:59;34.63;;;22.23;;
21166;SDS011;10741;52.272;9.580;2022-10-31T16:38:28;36.13;;;21.43;;
21166;SDS011;10741;52.272;9.580;2022-10-31T16:40:54;40.83;;;21.93;;
21166;SDS011;10741;52.272;9.580;2022-10-31T16:43:20;39.20;;;23.03;;
21166;SDS011;10741;52.272;9.580;2022-10-31T16:45:48;37.37;;;21.87;;
21166;SDS011;10741;52.272;9.580;2022-10-31T16:48:16;39.57;;;23.37;;
21166;SDS011;10741;52.272;9.580;2022-10-31T16:50:48;41.90;;;22.70;;
21166;SDS011;10741;52.272;9.580;2022-10-31T16:53:15;38.97;;;23.80;;
21166;SDS011;10741;52.272;9.580;2022-10-31T16:55:55;38.97;;;23.00;;
21166;SDS011;10741;52.272;9.580;2022-10-31T16:58:28;40.43;;;21.73;;
21166;SDS011;10741;52.272;9.580;2022-10-31T17:00:57;36.30;;;22.17;;
21166;SDS011;10741;52.272;9.580;2022-10-31T17:03:27;39.50;;;22.63;;
21166;SDS011;10741;52.272;9.580;2022-10-31T17:05:52;34.93;;;20.67;;
21166;SDS011;10741;52.272;9.580;2022-10-31T17:08:20;35.17;;;22.37;;
21166;SDS011;10741;52.272;9.580;2022-10-31T17:10:46;35.53;;;21.90;;
21166;SDS011;10741;52.272;9.580;2022-10-31T17:13:22;34.43;;;21.03;;
21166;SDS011;10741;52.272;9.580;2022-10-31T17:15:50;33.07;;;20.83;;